Time;durP1;ratioP1;P1;durP2;ratioP2;P2;SDS_P1;SDS_P2;PMS_P1;PMS_P2;Temp;Humidity;BMP_temperature;BMP_pressure;BME280_temperature;BME280_humidity;BME280_pressure;Samples;Min_cycle;Max_cycle;Signal;HPM_P1;HPM_P2
2024/01/30 00:00:22;;;;;;;;;;;5.40;99.90;;;;;;5088401;28;19927;-76
2024/01/30 00:02:47;;;;;;;;;;;5.00;99.90;;;;;;5070119;28;20364;-76
2024/01/30 00:05:13;;;;;;;;;;;5.40;99.90;;;;;;5066682;28;19963;-76
2024/01/30 00:07:40;;;;;;;;;;;5.10;99.90;;;;;;5069681;28;19928;-76
2024/01/30 00:10:06;;;;;;;;;;;5.40;99.90;;;;;;5088301;28;19969;-76
2024/01/30 00:12:31;;;;;;;;;;;5.10;99.90;;;;;;5069388;28;19966;-76
2024/01/30 00:14:57;;;;;;;;;;;5.20;99.90;;;;;;5086127;28;20385;-76
2024/01/30 00:17:25;;;;;;;;;;;5.40;99.90;;;;;;5085598;28;20060;-77
2024/01/30 00:19:50;;;;;;;;;;;5.20;99.90;;;;;;5100309;28;19932;-76
2024/01/30 00:22:16;;;;;;;;;;;5.20;99.90;;;;;;5085240;28;19923;-76
2024/01/30 00:24:41;;;;;;;;;;;5.10;99.90;;;;;;5070472;28;19924;-75
2024/01/30 00:27:07;;;;;;;;;;;5.30;99.90;;;;;;5087266;28;20026;-76
2024/01/30 00:29:33;;;;;;;;;;;5.00;99.90;;;;;;5086179;28;19956;-76
2024/01/30 00:31:59;;;;;;;;;;;5.30;99.90;;;;;;5102719;28;19934;-76
2024/01/30 00:34:25;;;;;;;;;;;5.10;99.90;;;;;;5103981;27;20015;-76
2024/01/30 00:36:51;;;;;;;;;;;5.10;99.90;;;;;;5071594;28;20030;-76
2024/01/30 00:39:19;;;;;;;;;;;5.40;99.90;;;;;;5088129;28;19998;-77
2024/01/30 00:41:45;;;;;;;;;;;5.10;99.90;;;;;;5087885;28;19932;-76
2024/01/30 00:44:11;;;;;;;;;;;5.10;99.90;;;;;;5072214;28;19978;-76
2024/01/30 00:46:36;;;;;;;;;;;5.30;99.90;;;;;;5087840;28;20509;-76
2024/01/30 00:49:02;;;;;;;;;;;5.10;99.90;;;;;;5071618;28;19924;-76
2024/01/30 00:51:29;;;;;;;;;;;5.50;99.90;;;;;;5068173;28;20031;-76
2024/01/30 00:54:00;;;;;;;;;;;5.60;99.90;;;;;;5087050;28;19939;-76
2024/01/30 00:56:26;;;;;;;;;;;5.40;99.90;;;;;;5067534;28;20278;-76
2024/01/30 00:58:52;;;;;;;;;;;5.60;99.90;;;;;;5069689;28;19928;-75
2024/01/30 01:01:17;;;;;;;;;;;5.70;99.90;;;;;;5088588;28;20502;-76
2024/01/30 01:03:43;;;;;;;;;;;6.00;99.90;;;;;;5088809;28;19924;-76
2024/01/30 01:06:09;;;;;;;;;;;5.60;99.90;;;;;;5058981;28;19931;-76
2024/01/30 01:08:34;;;;;;;;;;;5.80;99.90;;;;;;5088901;28;19938;-76
2024/01/30 01:11:00;;;;;;;;;;;5.90;99.90;;;;;;5068753;28;20159;-76
2024/01/30 01:13:26;;;;;;;;;;;5.80;99.90;;;;;;5102523;27;20382;-76
2024/01/30 01:15:51;;;;;;;;;;;6.10;99.90;;;;;;5084351;28;19928;-77
2024/01/30 01:18:17;;;;;;;;;;;6.20;99.90;;;;;;5087061;28;20554;-75
2024/01/30 01:20:43;;;;;;;;;;;6.00;99.90;;;;;;5107155;28;19931;-76
2024/01/30 01:23:08;;;;;;;;;;;6.30;99.90;;;;;;5087875;28;20311;-76
2024/01/30 01:25:34;;;;;;;;;;;5.80;99.90;;;;;;5103693;28;20014;-77
2024/01/30 01:28:01;;;;;;;;;;;5.90;99.90;;;;;;5087177;28;20356;-77
2024/01/30 01:30:28;;;;;;;;;;;7.50;99.90;;;;;;5086752;28;19932;-77
2024/01/30 01:32:59;;;;;;;;;;;6.20;99.90;;;;;;5086793;28;19931;-77
2024/01/30 01:35:26;;;;;;;;;;;6.20;99.90;;;;;;5070122;28;20014;-76
2024/01/30 01:37:55;;;;;;;;;;;6.30;99.90;;;;;;5102182;27;19981;-76
2024/01/30 01:40:24;;;;;;;;;;;6.40;99.90;;;;;;5088075;27;20417;-76
2024/01/30 01:42:51;;;;;;;;;;;6.10;99.90;;;;;;5086110;28;19927;-77
2024/01/30 01:45:17;;;;;;;;;;;6.50;99.90;;;;;;5101202;27;20056;-77
2024/01/30 01:47:42;;;;;;;;;;;6.10;99.90;;;;;;5084314;28;19924;-76
2024/01/30 01:50:08;;;;;;;;;;;6.10;99.90;;;;;;5086673;28;19934;-77
2024/01/30 01:52:34;;;;;;;;;;;6.40;99.90;;;;;;5085316;28;19930;-77
2024/01/30 01:55:01;;;;;;;;;;;6.50;99.90;;;;;;5085434;28;19927;-75
2024/01/30 01:57:27;;;;;;;;;;;6.80;99.90;;;;;;5069435;28;20014;-76
2024/01/30 01:59:52;;;;;;;;;;;6.30;99.90;;;;;;5076829;28;20022;-76
2024/01/30 02:02:19;;;;;;;;;;;6.50;99.90;;;;;;5068177;28;19990;-76
2024/01/30 02:04:45;;;;;;;;;;;6.40;99.90;;;;;;5070508;28;20436;-75
2024/01/30 02:07:11;;;;;;;;;;;6.70;99.90;;;;;;5103430;27;20370;-75
2024/01/30 02:09:36;;;;;;;;;;;6.30;99.90;;;;;;5068355;28;20172;-76
2024/01/30 02:12:02;;;;;;;;;;;6.50;99.90;;;;;;5068785;27;19931;-77
2024/01/30 02:14:27;;;;;;;;;;;6.50;99.90;;;;;;5087471;28;20429;-76
2024/01/30 02:16:53;;;;;;;;;;;6.70;99.90;;;;;;5103611;28;19924;-76
2024/01/30 02:19:19;;;;;;;;;;;6.70;99.90;;;;;;5086583;28;19923;-76
2024/01/30 02:21:46;;;;;;;;;;;6.90;99.90;;;;;;5084362;28;19970;-76
2024/01/30 02:24:11;;;;;;;;;;;6.40;99.90;;;;;;5085263;28;19931;-76
2024/01/30 02:26:37;;;;;;;;;;;6.60;99.90;;;;;;5084404;27;19928;-76
2024/01/30 02:29:05;;;;;;;;;;;6.80;99.90;;;;;;5102845;28;19931;-76
2024/01/30 02:31:31;;;;;;;;;;;6.50;99.90;;;;;;5070401;28;19928;-76
2024/01/30 02:33:57;;;;;;;;;;;6.40;99.90;;;;;;5103087;28;20119;-77
2024/01/30 02:36:22;;;;;;;;;;;6.60;99.90;;;;;;5083810;28;19927;-76
2024/01/30 02:38:48;;;;;;;;;;;6.30;99.90;;;;;;5085241;28;19928;-76
2024/01/30 02:41:14;;;;;;;;;;;6.80;99.90;;;;;;5069243;28;19985;-75
2024/01/30 02:43:44;;;;;;;;;;;6.40;99.90;;;;;;5101159;27;19927;-75
2024/01/30 02:46:10;;;;;;;;;;;6.70;99.90;;;;;;5068199;28;19927;-76
2024/01/30 02:48:35;;;;;;;;;;;6.50;99.90;;;;;;5102511;28;20555;-76
2024/01/30 02:51:01;;;;;;;;;;;6.80;99.90;;;;;;5083787;28;20038;-76
2024/01/30 02:53:30;;;;;;;;;;;6.70;99.90;;;;;;5100207;27;19935;-76
2024/01/30 02:55:55;;;;;;;;;;;6.60;99.90;;;;;;5069917;28;19927;-76
2024/01/30 02:58:21;;;;;;;;;;;6.50;99.90;;;;;;5065382;28;19984;-75
2024/01/30 03:00:46;;;;;;;;;;;6.60;99.90;;;;;;5085480;28;19932;-77
2024/01/30 03:03:15;;;;;;;;;;;6.50;99.90;;;;;;5101477;28;20014;-76
2024/01/30 03:05:41;;;;;;;;;;;6.70;99.90;;;;;;5083761;28;19934;-75
2024/01/30 03:08:06;;;;;;;;;;;6.40;99.90;;;;;;5084520;28;20082;-76
2024/01/30 03:10:32;;;;;;;;;;;6.50;99.90;;;;;;5102302;28;20464;-76
2024/01/30 03:12:57;;;;;;;;;;;6.20;99.90;;;;;;5085609;28;19924;-76
2024/01/30 03:15:23;;;;;;;;;;;6.20;99.90;;;;;;5085282;28;20364;-76
2024/01/30 03:17:55;;;;;;;;;;;6.10;99.90;;;;;;5174645;27;19927;-75
2024/01/30 03:20:21;;;;;;;;;;;6.00;99.90;;;;;;5140553;27;19927;-75
2024/01/30 03:22:46;;;;;;;;;;;6.20;99.90;;;;;;5137142;27;20422;-74
2024/01/30 03:25:12;;;;;;;;;;;6.40;99.90;;;;;;5138753;27;19927;-74
2024/01/30 03:27:37;;;;;;;;;;;6.60;99.90;;;;;;5124329;27;19949;-75
2024/01/30 03:30:03;;;;;;;;;;;6.30;99.90;;;;;;5120933;27;19931;-75
2024/01/30 03:32:29;;;;;;;;;;;6.20;99.90;;;;;;5098531;27;19980;-75
2024/01/30 03:34:55;;;;;;;;;;;6.50;99.90;;;;;;5013756;27;2027519;-75
2024/01/30 03:37:21;;;;;;;;;;;6.60;99.90;;;;;;5083237;27;19924;-75
2024/01/30 03:39:46;;;;;;;;;;;6.30;99.90;;;;;;5080057;27;20264;-76
2024/01/30 03:42:12;;;;;;;;;;;6.20;99.90;;;;;;5084890;27;19935;-75
2024/01/30 03:44:37;;;;;;;;;;;6.10;99.90;;;;;;5078022;27;19947;-75
2024/01/30 03:47:03;;;;;;;;;;;6.30;99.90;;;;;;5070404;27;20013;-75
2024/01/30 03:49:28;;;;;;;;;;;6.20;99.90;;;;;;5094424;27;19982;-74
2024/01/30 03:51:57;;;;;;;;;;;6.50;99.90;;;;;;5104143;27;19923;-74
2024/01/30 03:54:23;;;;;;;;;;;6.20;99.90;;;;;;5096338;27;19946;-74
2024/01/30 03:56:48;;;;;;;;;;;6.20;99.90;;;;;;5077655;27;19931;-75
2024/01/30 03:59:14;;;;;;;;;;;6.50;99.90;;;;;;5094229;27;19927;-75
2024/01/30 04:01:41;;;;;;;;;;;6.70;99.90;;;;;;5115398;27;20823;-74
2024/01/30 04:04:06;;;;;;;;;;;6.30;99.90;;;;;;5092081;27;19930;-74
2024/01/30 04:06:32;;;;;;;;;;;6.60;99.90;;;;;;5094658;27;19931;-75
2024/01/30 04:08:57;;;;;;;;;;;6.40;99.90;;;;;;5086098;27;19924;-76
2024/01/30 04:11:23;;;;;;;;;;;6.80;99.90;;;;;;5095686;27;20432;-75
2024/01/30 04:13:49;;;;;;;;;;;6.90;99.90;;;;;;5096092;27;20318;-74
2024/01/30 04:16:24;;;;;;;;;;;6.50;99.90;;;;;;5061939;27;19928;-75
2024/01/30 04:18:51;;;;;;;;;;;6.90;99.90;;;;;;5095032;27;19985;-76
2024/01/30 04:21:16;;;;;;;;;;;6.70;99.90;;;;;;5077772;27;20314;-75
2024/01/30 04:23:42;;;;;;;;;;;6.60;99.90;;;;;;5060657;27;19924;-75
2024/01/30 04:26:07;;;;;;;;;;;6.90;99.90;;;;;;5083977;27;19989;-75
2024/01/30 04:28:33;;;;;;;;;;;6.50;99.90;;;;;;5069481;28;19958;-75
2024/01/30 04:30:59;;;;;;;;;;;7.00;99.90;;;;;;5078891;28;19928;-75
2024/01/30 04:33:24;;;;;;;;;;;6.70;99.90;;;;;;5076984;28;19932;-75
2024/01/30 04:35:51;;;;;;;;;;;6.60;99.90;;;;;;5074980;27;19928;-75
2024/01/30 04:38:17;;;;;;;;;;;7.50;99.90;;;;;;5079356;27;19967;-73
2024/01/30 04:40:43;;;;;;;;;;;6.90;99.90;;;;;;5071115;28;20025;-75
2024/01/30 04:43:08;;;;;;;;;;;6.70;99.90;;;;;;5079140;27;20943;-76
2024/01/30 04:45:34;;;;;;;;;;;6.90;99.90;;;;;;5054136;27;20320;-75
2024/01/30 04:48:00;;;;;;;;;;;6.80;99.90;;;;;;5081784;27;19927;-75
2024/01/30 04:50:26;;;;;;;;;;;6.90;99.90;;;;;;5079474;27;19928;-75
2024/01/30 04:52:52;;;;;;;;;;;6.50;99.90;;;;;;5070268;28;19928;-75
2024/01/30 04:55:17;;;;;;;;;;;6.50;99.90;;;;;;5052575;27;20424;-75
2024/01/30 04:57:43;;;;;;;;;;;6.80;99.90;;;;;;5077980;28;19928;-75
2024/01/30 05:00:09;;;;;;;;;;;6.70;99.90;;;;;;5079473;27;19924;-75
2024/01/30 05:02:35;;;;;;;;;;;6.80;99.90;;;;;;5065628;28;19947;-75
2024/01/30 05:05:00;;;;;;;;;;;6.60;99.90;;;;;;5074894;27;19954;-76
2024/01/30 05:07:26;;;;;;;;;;;6.80;99.90;;;;;;5079093;28;20262;-75
2024/01/30 05:09:57;;;;;;;;;;;7.10;99.90;;;;;;5057835;27;19928;-75
2024/01/30 05:12:23;;;;;;;;;;;7.00;99.90;;;;;;5083942;27;19932;-76
2024/01/30 05:14:48;;;;;;;;;;;6.70;99.90;;;;;;5076293;28;20041;-75
2024/01/30 05:17:14;;;;;;;;;;;6.70;99.90;;;;;;5077910;27;20298;-75
2024/01/30 05:19:40;;;;;;;;;;;6.80;99.90;;;;;;5062737;27;20042;-75
2024/01/30 05:22:05;;;;;;;;;;;6.90;99.90;;;;;;5063550;27;19928;-75
2024/01/30 05:24:32;;;;;;;;;;;6.80;99.90;;;;;;5066059;27;19962;-75
2024/01/30 05:26:57;;;;;;;;;;;7.20;99.90;;;;;;5080443;28;20022;-75
2024/01/30 05:29:23;;;;;;;;;;;7.20;99.90;;;;;;5060938;28;20430;-75
2024/01/30 05:31:49;;;;;;;;;;;7.20;99.90;;;;;;5078183;28;19934;-74
2024/01/30 05:34:16;;;;;;;;;;;7.30;99.90;;;;;;5078719;28;19932;-75
2024/01/30 05:36:41;;;;;;;;;;;6.90;99.90;;;;;;5063205;28;20286;-74
2024/01/30 05:39:07;;;;;;;;;;;7.20;99.90;;;;;;5077194;28;19931;-75
2024/01/30 05:41:33;;;;;;;;;;;6.80;99.90;;;;;;5078532;28;19931;-76
2024/01/30 05:43:58;;;;;;;;;;;8.60;99.90;;;;;;5077132;27;20031;-76
2024/01/30 05:46:24;;;;;;;;;;;6.80;99.90;;;;;;5079525;27;19927;-76
2024/01/30 05:48:50;;;;;;;;;;;7.00;99.90;;;;;;5065016;28;20635;-75
2024/01/30 05:51:15;;;;;;;;;;;6.80;99.90;;;;;;5055881;28;19950;-75
2024/01/30 05:53:41;;;;;;;;;;;7.30;99.90;;;;;;5046259;28;19932;-76
2024/01/30 05:56:07;;;;;;;;;;;6.80;99.90;;;;;;5065448;27;20341;-75
2024/01/30 05:58:32;;;;;;;;;;;6.90;99.90;;;;;;5066852;27;19935;-74
2024/01/30 06:00:58;;;;;;;;;;;6.80;99.90;;;;;;5070467;27;20039;-75
2024/01/30 06:03:24;;;;;;;;;;;6.80;99.90;;;;;;5080088;27;19927;-74
2024/01/30 06:05:50;;;;;;;;;;;7.00;99.90;;;;;;5076337;27;19927;-75
2024/01/30 06:08:15;;;;;;;;;;;7.00;99.90;;;;;;5064228;27;19939;-75
2024/01/30 06:10:41;;;;;;;;;;;7.30;99.90;;;;;;5061916;28;19928;-76
2024/01/30 06:13:07;;;;;;;;;;;7.00;99.90;;;;;;5081554;27;19927;-75
2024/01/30 06:15:32;;;;;;;;;;;7.30;99.90;;;;;;5079629;27;20332;-75
2024/01/30 06:17:58;;;;;;;;;;;7.10;99.90;;;;;;5079879;28;20453;-75
2024/01/30 06:20:24;;;;;;;;;;;6.90;99.90;;;;;;5074242;27;19928;-75
2024/01/30 06:22:49;;;;;;;;;;;6.90;99.90;;;;;;5064895;28;19924;-75
2024/01/30 06:25:16;;;;;;;;;;;7.20;99.90;;;;;;5054558;28;19932;-75
2024/01/30 06:27:42;;;;;;;;;;;7.00;99.90;;;;;;5062557;27;19931;-75
2024/01/30 06:30:08;;;;;;;;;;;7.00;99.90;;;;;;5061641;28;19932;-76
2024/01/30 06:32:35;;;;;;;;;;;7.40;99.90;;;;;;5062070;27;20465;-75
2024/01/30 06:35:01;;;;;;;;;;;7.30;99.90;;;;;;5097266;27;20260;-75
2024/01/30 06:37:27;;;;;;;;;;;7.10;99.90;;;;;;5076632;28;19946;-75
2024/01/30 06:39:53;;;;;;;;;;;7.40;99.90;;;;;;5063193;27;20373;-75
2024/01/30 06:42:20;;;;;;;;;;;7.40;99.90;;;;;;5076373;28;19927;-75
2024/01/30 06:44:46;;;;;;;;;;;7.20;99.90;;;;;;5036751;28;19938;-75
2024/01/30 06:47:11;;;;;;;;;;;7.40;99.90;;;;;;5062176;28;20263;-75
2024/01/30 06:49:38;;;;;;;;;;;6.90;99.90;;;;;;5075595;27;19931;-75
2024/01/30 06:52:06;;;;;;;;;;;6.90;99.90;;;;;;5068647;27;19955;-75
2024/01/30 06:54:33;;;;;;;;;;;6.90;99.90;;;;;;5078874;27;20891;-75
2024/01/30 06:56:58;;;;;;;;;;;7.20;99.90;;;;;;5074421;27;20412;-75
2024/01/30 06:59:24;;;;;;;;;;;6.90;99.90;;;;;;5059618;28;19927;-76
2024/01/30 07:01:50;;;;;;;;;;;7.40;99.90;;;;;;5061101;28;20401;-74
2024/01/30 07:04:16;;;;;;;;;;;7.00;99.90;;;;;;5059232;28;19973;-76
2024/01/30 07:06:42;;;;;;;;;;;7.20;99.90;;;;;;5062000;27;19927;-75
2024/01/30 07:09:09;;;;;;;;;;;7.40;99.90;;;;;;5097184;27;19928;-75
2024/01/30 07:11:35;;;;;;;;;;;7.00;99.90;;;;;;5055802;27;20041;-75
2024/01/30 07:14:03;;;;;;;;;;;7.30;99.90;;;;;;5059806;28;20050;-75
2024/01/30 07:16:29;;;;;;;;;;;7.00;99.90;;;;;;5070367;28;19962;-75
2024/01/30 07:18:55;;;;;;;;;;;6.90;99.90;;;;;;5057993;28;19935;-74
2024/01/30 07:21:25;;;;;;;;;;;6.90;99.90;;;;;;5066303;28;19931;-74
2024/01/30 07:23:50;;;;;;;;;;;6.80;99.90;;;;;;5078564;28;19927;-75
2024/01/30 07:26:16;;;;;;;;;;;7.00;99.90;;;;;;5059954;28;19935;-75
2024/01/30 07:28:41;;;;;;;;;;;7.20;99.90;;;;;;5062189;28;19928;-75
2024/01/30 07:31:07;;;;;;;;;;;7.00;99.90;;;;;;5076210;28;21450;-75
2024/01/30 07:33:33;;;;;;;;;;;6.80;99.90;;;;;;5067433;28;19928;-75
2024/01/30 07:35:58;;;;;;;;;;;6.80;99.90;;;;;;5042268;28;19939;-75
2024/01/30 07:38:24;;;;;;;;;;;6.90;99.90;;;;;;5078264;28;19997;-75
2024/01/30 07:40:50;;;;;;;;;;;6.80;99.90;;;;;;5080446;28;19934;-75
2024/01/30 07:43:15;;;;;;;;;;;7.10;99.90;;;;;;5064893;28;20586;-75
2024/01/30 07:45:41;;;;;;;;;;;7.00;99.90;;;;;;5065127;28;19931;-75
2024/01/30 07:48:07;;;;;;;;;;;7.00;99.90;;;;;;5097967;28;20290;-75
2024/01/30 07:50:32;;;;;;;;;;;7.10;99.90;;;;;;5078586;28;21518;-73
2024/01/30 07:52:59;;;;;;;;;;;7.30;99.90;;;;;;5059212;28;20522;-75
2024/01/30 07:55:27;;;;;;;;;;;6.90;99.90;;;;;;5076587;28;20419;-75
2024/01/30 07:57:53;;;;;;;;;;;7.10;99.90;;;;;;5059030;28;20028;-75
2024/01/30 08:00:19;;;;;;;;;;;7.30;99.90;;;;;;5092234;28;20412;-75
2024/01/30 08:02:45;;;;;;;;;;;7.30;99.90;;;;;;5084591;27;19974;-75
2024/01/30 08:05:11;;;;;;;;;;;7.40;99.90;;;;;;5100215;27;20043;-75
2024/01/30 08:07:37;;;;;;;;;;;7.10;99.90;;;;;;5081587;28;20007;-75
2024/01/30 08:10:02;;;;;;;;;;;7.10;99.90;;;;;;5078010;27;19927;-75
2024/01/30 08:12:28;;;;;;;;;;;7.50;99.90;;;;;;5066597;28;19928;-75
2024/01/30 08:14:54;;;;;;;;;;;7.10;99.90;;;;;;5064532;28;19966;-75
2024/01/30 08:17:19;;;;;;;;;;;7.40;99.90;;;;;;5079588;27;19924;-75
2024/01/30 08:19:45;;;;;;;;;;;7.30;99.90;;;;;;5063003;27;19936;-75
2024/01/30 08:22:12;;;;;;;;;;;7.60;99.90;;;;;;5047600;28;19927;-76
2024/01/30 08:24:37;;;;;;;;;;;7.20;99.90;;;;;;5096847;27;19938;-75
2024/01/30 08:27:04;;;;;;;;;;;7.70;99.90;;;;;;5064315;27;19946;-74
2024/01/30 08:29:30;;;;;;;;;;;7.40;99.90;;;;;;5076887;28;20527;-75
2024/01/30 08:31:56;;;;;;;;;;;7.40;99.90;;;;;;5079426;27;19972;-75
2024/01/30 08:34:21;;;;;;;;;;;7.50;99.90;;;;;;5096323;27;19967;-75
2024/01/30 08:36:47;;;;;;;;;;;7.70;99.90;;;;;;5079661;28;20023;-75
2024/01/30 08:39:14;;;;;;;;;;;7.80;99.90;;;;;;5094509;27;20053;-75
2024/01/30 08:41:40;;;;;;;;;;;7.80;99.90;;;;;;5059746;28;19928;-74
2024/01/30 08:44:05;;;;;;;;;;;7.50;99.90;;;;;;5073929;28;19924;-75
2024/01/30 08:46:31;;;;;;;;;;;7.60;99.90;;;;;;5080067;28;19928;-74
2024/01/30 08:48:57;;;;;;;;;;;8.00;99.90;;;;;;5046575;27;20026;-74
2024/01/30 08:51:25;;;;;;;;;;;7.70;99.90;;;;;;5073070;27;19928;-74
2024/01/30 08:53:52;;;;;;;;;;;7.90;99.90;;;;;;5078788;27;19938;-75
2024/01/30 08:56:18;;;;;;;;;;;8.10;99.90;;;;;;5094048;27;19935;-75
2024/01/30 08:58:44;;;;;;;;;;;7.70;99.90;;;;;;5086865;28;20363;-75
2024/01/30 09:01:09;;;;;;;;;;;8.20;99.90;;;;;;5078728;28;19924;-75
2024/01/30 09:03:36;;;;;;;;;;;7.80;99.90;;;;;;5078530;27;19924;-75
2024/01/30 09:06:02;;;;;;;;;;;7.90;99.90;;;;;;5085102;28;19985;-74
2024/01/30 09:08:28;;;;;;;;;;;8.10;99.90;;;;;;5045890;27;19932;-75
2024/01/30 09:10:54;;;;;;;;;;;8.20;99.90;;;;;;5061245;27;20271;-75
2024/01/30 09:13:20;;;;;;;;;;;8.10;99.90;;;;;;5077020;27;20387;-76
2024/01/30 09:15:46;;;;;;;;;;;8.30;99.90;;;;;;5071386;27;19939;-74
2024/01/30 09:18:11;;;;;;;;;;;8.10;99.90;;;;;;5080702;27;19950;-77
2024/01/30 09:20:38;;;;;;;;;;;8.20;99.90;;;;;;5078085;27;19927;-77
2024/01/30 09:23:03;;;;;;;;;;;8.30;99.90;;;;;;5079011;28;19927;-76
2024/01/30 09:25:29;;;;;;;;;;;7.90;99.90;;;;;;5062630;28;20336;-74
2024/01/30 09:27:54;;;;;;;;;;;8.00;99.90;;;;;;5094475;27;20326;-75
2024/01/30 09:30:20;;;;;;;;;;;8.10;99.90;;;;;;5062542;27;19938;-74
2024/01/30 09:32:46;;;;;;;;;;;8.20;99.90;;;;;;5068676;27;20450;-74
2024/01/30 09:35:11;;;;;;;;;;;8.00;99.90;;;;;;5067335;27;19928;-75
2024/01/30 09:37:37;;;;;;;;;;;8.30;99.90;;;;;;5081313;28;20378;-75
2024/01/30 09:40:03;;;;;;;;;;;8.00;99.90;;;;;;5062901;27;20039;-74
2024/01/30 09:42:32;;;;;;;;;;;7.90;99.90;;;;;;5078207;28;19967;-75
2024/01/30 09:44:58;;;;;;;;;;;8.00;99.90;;;;;;5061352;27;19928;-75
2024/01/30 09:47:24;;;;;;;;;;;8.30;99.90;;;;;;5063564;28;19932;-75
2024/01/30 09:49:51;;;;;;;;;;;8.00;99.90;;;;;;5064044;27;20369;-76
2024/01/30 09:52:18;;;;;;;;;;;8.10;99.90;;;;;;5062048;28;20445;-75
2024/01/30 09:54:44;;;;;;;;;;;8.00;99.90;;;;;;5060728;28;19982;-75
2024/01/30 09:57:11;;;;;;;;;;;8.40;99.90;;;;;;5075274;27;20261;-75
2024/01/30 09:59:37;;;;;;;;;;;8.30;99.90;;;;;;5059062;27;19928;-75
2024/01/30 10:02:04;;;;;;;;;;;8.20;99.90;;;;;;5075307;27;19978;-76
2024/01/30 10:04:30;;;;;;;;;;;8.10;99.90;;;;;;5076560;27;20026;-75
2024/01/30 10:06:56;;;;;;;;;;;8.40;99.90;;;;;;5074789;28;19970;-75
2024/01/30 10:09:22;;;;;;;;;;;8.10;99.90;;;;;;5076322;27;19939;-75
2024/01/30 10:11:48;;;;;;;;;;;8.10;99.90;;;;;;5060657;27;20196;-75
2024/01/30 10:14:15;;;;;;;;;;;8.20;99.90;;;;;;5078281;28;20009;-76
2024/01/30 10:16:41;;;;;;;;;;;8.40;99.90;;;;;;5076008;27;20232;-76
2024/01/30 10:19:06;;;;;;;;;;;8.40;99.90;;;;;;5073837;28;19959;-75
2024/01/30 10:21:32;;;;;;;;;;;8.20;99.90;;;;;;5063348;28;19927;-75
2024/01/30 10:23:57;;;;;;;;;;;7.90;99.90;;;;;;5079291;27;19940;-75
2024/01/30 10:26:23;;;;;;;;;;;8.30;99.90;;;;;;5094467;27;20402;-75
2024/01/30 10:28:49;;;;;;;;;;;7.90;99.90;;;;;;5077876;28;20408;-75
2024/01/30 10:31:21;;;;;;;;;;;8.00;99.90;;;;;;5048249;28;19928;-76
2024/01/30 10:33:47;;;;;;;;;;;7.90;99.90;;;;;;5052145;28;19939;-75
2024/01/30 10:36:13;;;;;;;;;;;7.90;99.90;;;;;;5065490;28;19927;-75
2024/01/30 10:38:42;;;;;;;;;;;8.30;99.90;;;;;;5077830;27;19924;-74
2024/01/30 10:41:08;;;;;;;;;;;8.10;99.90;;;;;;5057960;28;19958;-75
2024/01/30 10:43:40;;;;;;;;;;;8.00;99.90;;;;;;5061708;28;19930;-75
2024/01/30 10:46:19;;;;;;;;;;;7.80;99.90;;;;;;5094517;28;20149;-75
2024/01/30 10:48:50;;;;;;;;;;;7.80;99.90;;;;;;5055334;27;19928;-75
2024/01/30 10:51:16;;;;;;;;;;;8.10;99.90;;;;;;5081102;27;19932;-75
2024/01/30 10:53:43;;;;;;;;;;;7.80;99.90;;;;;;5048479;27;19927;-75
2024/01/30 10:56:10;;;;;;;;;;;8.10;99.90;;;;;;5079103;28;19932;-74
2024/01/30 10:58:36;;;;;;;;;;;8.00;99.90;;;;;;5082469;28;20641;-74
2024/01/30 11:01:03;;;;;;;;;;;8.30;99.90;;;;;;5046889;28;19927;-75
2024/01/30 11:03:29;;;;;;;;;;;8.30;99.90;;;;;;5066034;28;19928;-75
2024/01/30 11:05:59;;;;;;;;;;;8.30;99.90;;;;;;5079881;27;19934;-75
2024/01/30 11:08:25;;;;;;;;;;;8.20;99.90;;;;;;5056845;28;20057;-75
2024/01/30 11:10:55;;;;;;;;;;;8.00;99.90;;;;;;5078653;28;19935;-76
2024/01/30 11:13:21;;;;;;;;;;;7.80;99.90;;;;;;5067157;28;19928;-75
2024/01/30 11:15:47;;;;;;;;;;;8.20;99.90;;;;;;5063425;28;19951;-75
2024/01/30 11:18:22;;;;;;;;;;;7.90;99.90;;;;;;5064722;28;19981;-75
2024/01/30 11:20:48;;;;;;;;;;;8.10;99.90;;;;;;5081925;28;20886;-75
2024/01/30 11:23:14;;;;;;;;;;;8.10;99.90;;;;;;5078797;28;19928;-75
2024/01/30 11:25:39;;;;;;;;;;;7.60;99.90;;;;;;5078261;28;20396;-75
2024/01/30 11:28:05;;;;;;;;;;;7.60;99.90;;;;;;5064834;28;19932;-72
2024/01/30 11:30:31;;;;;;;;;;;7.80;99.90;;;;;;5068913;28;20021;-75
2024/01/30 11:33:08;;;;;;;;;;;7.80;99.90;;;;;;5078301;28;19923;-75
2024/01/30 11:35:35;;;;;;;;;;;7.90;99.90;;;;;;5079678;28;19936;-75
2024/01/30 11:38:02;;;;;;;;;;;7.60;99.90;;;;;;5063823;27;19928;-75
2024/01/30 11:40:29;;;;;;;;;;;8.00;99.90;;;;;;5080312;27;19923;-75
2024/01/30 11:42:55;;;;;;;;;;;8.00;99.90;;;;;;5088172;27;19923;-74
2024/01/30 11:45:21;;;;;;;;;;;7.80;99.90;;;;;;5068093;28;19927;-75
2024/01/30 11:47:50;;;;;;;;;;;8.10;99.90;;;;;;5104950;27;20390;-76
2024/01/30 11:50:15;;;;;;;;;;;8.00;99.90;;;;;;5083204;28;19946;-76
2024/01/30 11:52:42;;;;;;;;;;;7.80;99.90;;;;;;5049749;27;19962;-75
2024/01/30 11:55:09;;;;;;;;;;;6.80;99.90;;;;;;5083266;27;20589;-75
2024/01/30 11:57:37;;;;;;;;;;;8.10;99.90;;;;;;5086809;27;19934;-75
2024/01/30 12:00:09;;;;;;;;;;;8.10;99.90;;;;;;5088455;27;19924;-75
2024/01/30 12:02:36;;;;;;;;;;;7.80;99.90;;;;;;5065917;27;20006;-75
2024/01/30 12:05:09;;;;;;;;;;;7.70;99.90;;;;;;5071617;27;19933;-75
2024/01/30 12:07:35;;;;;;;;;;;8.00;99.90;;;;;;5082832;27;19981;-75
2024/01/30 12:10:00;;;;;;;;;;;8.10;99.90;;;;;;5082668;27;19931;-75
2024/01/30 12:12:26;;;;;;;;;;;8.10;99.90;;;;;;5085339;28;19923;-75
2024/01/30 12:14:52;;;;;;;;;;;7.70;99.90;;;;;;5060783;28;19932;-76
2024/01/30 12:17:24;;;;;;;;;;;8.10;99.90;;;;;;5069591;27;20336;-74
2024/01/30 12:20:06;;;;;;;;;;;8.20;99.90;;;;;;5067167;27;19924;-74
2024/01/30 12:22:35;;;;;;;;;;;7.90;99.90;;;;;;5082164;28;19973;-75
2024/01/30 12:25:01;;;;;;;;;;;8.20;99.90;;;;;;5084975;27;19946;-75
2024/01/30 12:27:30;;;;;;;;;;;8.00;99.90;;;;;;5087222;27;19993;-75
2024/01/30 12:29:57;;;;;;;;;;;7.90;99.90;;;;;;5067526;27;20414;-75
2024/01/30 12:32:23;;;;;;;;;;;7.80;99.90;;;;;;5082890;27;20367;-75
2024/01/30 12:34:49;;;;;;;;;;;7.70;99.90;;;;;;5085319;27;19928;-74
2024/01/30 12:37:19;;;;;;;;;;;7.70;99.90;;;;;;5074739;28;20003;-73
2024/01/30 12:39:45;;;;;;;;;;;8.10;99.90;;;;;;5072782;27;19928;-74
2024/01/30 12:42:11;;;;;;;;;;;8.10;99.90;;;;;;5079648;27;19931;-73
2024/01/30 12:44:36;;;;;;;;;;;8.10;99.90;;;;;;5081164;28;19927;-73
2024/01/30 12:47:05;;;;;;;;;;;8.00;99.90;;;;;;5087063;27;20306;-73
2024/01/30 12:49:31;;;;;;;;;;;8.10;99.90;;;;;;5076128;28;20417;-74
2024/01/30 12:51:56;;;;;;;;;;;8.00;99.90;;;;;;5079878;27;20409;-74
2024/01/30 12:54:22;;;;;;;;;;;8.10;99.90;;;;;;5084034;27;20068;-74
2024/01/30 12:56:48;;;;;;;;;;;7.80;99.90;;;;;;5082886;28;19932;-74
2024/01/30 12:59:14;;;;;;;;;;;7.80;99.90;;;;;;5085689;28;19934;-74
2024/01/30 13:01:39;;;;;;;;;;;8.10;99.90;;;;;;5081044;27;20386;-74
2024/01/30 13:04:05;;;;;;;;;;;7.70;99.90;;;;;;5083498;27;19927;-74
2024/01/30 13:06:30;;;;;;;;;;;7.70;99.90;;;;;;5074297;28;20545;-74
2024/01/30 13:08:56;;;;;;;;;;;7.80;99.90;;;;;;5068922;27;19934;-74
2024/01/30 13:11:22;;;;;;;;;;;7.70;99.90;;;;;;5084554;27;19953;-75
2024/01/30 13:13:47;;;;;;;;;;;7.90;99.90;;;;;;5102909;27;20354;-73
2024/01/30 13:16:13;;;;;;;;;;;7.70;99.90;;;;;;5065743;27;20488;-74
2024/01/30 13:18:39;;;;;;;;;;;7.70;99.90;;;;;;5079580;27;20386;-74
2024/01/30 13:21:04;;;;;;;;;;;7.60;99.90;;;;;;5064581;28;20019;-74
2024/01/30 13:23:30;;;;;;;;;;;7.90;99.90;;;;;;5073394;27;19932;-74
2024/01/30 13:25:58;;;;;;;;;;;7.70;99.90;;;;;;5078560;27;19950;-74
2024/01/30 13:28:25;;;;;;;;;;;7.90;99.90;;;;;;5080216;27;19931;-74
2024/01/30 13:30:51;;;;;;;;;;;7.90;99.90;;;;;;5069493;27;19980;-74
2024/01/30 13:33:17;;;;;;;;;;;7.60;99.90;;;;;;5087600;28;20344;-74
2024/01/30 13:35:43;;;;;;;;;;;7.80;99.90;;;;;;5083288;27;20010;-74
2024/01/30 13:38:09;;;;;;;;;;;7.90;99.90;;;;;;5069144;28;19954;-74
2024/01/30 13:40:35;;;;;;;;;;;7.70;99.90;;;;;;5081228;28;20546;-75
2024/01/30 13:43:00;;;;;;;;;;;7.70;99.90;;;;;;5044189;27;19929;-74
2024/01/30 13:45:26;;;;;;;;;;;7.70;99.90;;;;;;5100598;27;19928;-75
2024/01/30 13:47:51;;;;;;;;;;;7.80;99.90;;;;;;5083419;28;20020;-75
2024/01/30 13:50:17;;;;;;;;;;;7.70;99.90;;;;;;5072044;28;19928;-75
2024/01/30 13:52:43;;;;;;;;;;;7.80;99.90;;;;;;5069787;27;20428;-75
2024/01/30 13:55:09;;;;;;;;;;;7.80;99.90;;;;;;5088708;27;19935;-75
2024/01/30 13:57:36;;;;;;;;;;;7.80;99.90;;;;;;5086844;27;19928;-75
2024/01/30 14:00:05;;;;;;;;;;;7.80;99.90;;;;;;5085524;27;19931;-75
2024/01/30 14:02:31;;;;;;;;;;;7.60;99.90;;;;;;5070006;27;20488;-74
2024/01/30 14:04:56;;;;;;;;;;;7.70;99.90;;;;;;5048459;27;19967;-74
2024/01/30 14:07:22;;;;;;;;;;;7.70;99.90;;;;;;5047241;27;20003;-75
2024/01/30 14:09:48;;;;;;;;;;;7.60;99.90;;;;;;5071561;27;20405;-75
2024/01/30 14:12:13;;;;;;;;;;;7.60;99.90;;;;;;5088102;27;19927;-75
2024/01/30 14:14:42;;;;;;;;;;;7.70;99.90;;;;;;5105124;27;19928;-76
2024/01/30 14:17:07;;;;;;;;;;;7.60;99.90;;;;;;5067474;27;19949;-75
2024/01/30 14:19:34;;;;;;;;;;;7.70;99.90;;;;;;5050864;28;19927;-75
2024/01/30 14:21:59;;;;;;;;;;;7.60;99.90;;;;;;5064507;28;19936;-75
2024/01/30 14:24:26;;;;;;;;;;;7.50;99.90;;;;;;5076101;28;19938;-74